createdAt,value
2023-02-15T00:00:18.590Z,55.69
2023-02-15T00:02:46.879Z,55.58
2023-02-15T00:05:15.144Z,55.69
2023-02-15T00:07:44.794Z,55.72
2023-02-15T00:10:13.246Z,55.91
2023-02-15T00:15:21.490Z,55.89
2023-02-15T00:17:49.748Z,55.70
2023-02-15T00:20:19.383Z,55.63
2023-02-15T00:22:49.001Z,55.60
2023-02-15T00:25:17.334Z,55.74
2023-02-15T00:27:45.584Z,55.77
2023-02-15T00:30:14.943Z,55.94
2023-02-15T00:32:43.263Z,55.86
2023-02-15T00:35:11.701Z,55.71
2023-02-15T00:37:40.030Z,55.94
2023-02-15T00:40:11.437Z,55.80
2023-02-15T00:42:39.707Z,55.91
2023-02-15T00:45:09.235Z,55.72
2023-02-15T00:47:37.564Z,55.89
2023-02-15T00:50:07.432Z,55.48
2023-02-15T00:52:35.669Z,55.41
2023-02-15T00:55:03.909Z,55.42
2023-02-15T00:57:33.492Z,55.46
2023-02-15T01:00:01.696Z,55.18
2023-02-15T01:02:30.349Z,55.10
2023-02-15T01:04:58.588Z,55.17
2023-02-15T01:07:26.872Z,55.05
2023-02-15T01:09:55.134Z,55.56
2023-02-15T01:12:23.393Z,55.41
2023-02-15T01:14:52.997Z,55.28
2023-02-15T01:17:21.214Z,55.49
2023-02-15T01:19:49.754Z,55.43
2023-02-15T01:22:18.005Z,55.69
2023-02-15T01:24:46.501Z,55.56
2023-02-15T01:27:14.716Z,55.51
2023-02-15T01:29:42.935Z,55.41
2023-02-15T01:32:12.573Z,55.50
2023-02-15T01:34:40.805Z,55.46
2023-02-15T01:37:09.055Z,55.48
2023-02-15T01:39:37.304Z,55.45
2023-02-15T01:42:05.828Z,55.46
2023-02-15T01:44:59.090Z,55.66
2023-02-15T01:47:36.118Z,55.33
2023-02-15T01:50:12.395Z,55.27
2023-02-15T01:52:48.792Z,55.25
2023-02-15T01:55:18.042Z,55.32
2023-02-15T01:57:48.650Z,55.42
2023-02-15T02:00:18.598Z,55.32
2023-02-15T02:02:51.077Z,55.55
2023-02-15T02:05:19.785Z,55.53
2023-02-15T02:07:51.017Z,55.49
2023-02-15T02:10:21.425Z,55.48
2023-02-15T02:12:54.610Z,55.44
2023-02-15T02:15:32.469Z,55.60
2023-02-15T02:18:20.013Z,55.67
2023-02-15T02:21:23.634Z,55.53
2023-02-15T02:24:40.910Z,55.43
2023-02-15T02:27:32.014Z,55.48
2023-02-15T02:30:46.620Z,55.64
2023-02-15T02:33:53.880Z,55.75
2023-02-15T02:36:32.468Z,55.39
2023-02-15T02:39:24.770Z,55.77
2023-02-15T02:42:00.906Z,55.83
2023-02-15T02:44:37.534Z,55.63
2023-02-15T02:47:12.431Z,55.41
2023-02-15T02:49:44.305Z,55.54
2023-02-15T02:52:41.878Z,55.37
2023-02-15T02:55:16.477Z,55.56
2023-02-15T02:57:54.766Z,55.39
2023-02-15T03:00:25.437Z,55.68
2023-02-15T03:02:59.489Z,55.43
2023-02-15T03:05:31.878Z,55.40
2023-02-15T03:08:06.931Z,55.67
2023-02-15T03:10:37.999Z,55.54
2023-02-15T03:13:06.357Z,55.45
2023-02-15T03:15:56.928Z,55.32
2023-02-15T03:18:30.615Z,55.32
2023-02-15T03:21:03.852Z,55.32
2023-02-15T03:23:34.440Z,55.31
2023-02-15T03:26:05.731Z,55.34
2023-02-15T03:28:38.748Z,55.40
2023-02-15T03:31:09.935Z,55.35
2023-02-15T03:33:44.644Z,55.35
2023-02-15T03:36:21.639Z,55.33
2023-02-15T03:39:00.230Z,55.38
2023-02-15T03:41:36.252Z,55.59
2023-02-15T03:44:11.776Z,55.55
2023-02-15T03:46:47.511Z,55.52
2023-02-15T03:49:23.380Z,55.37
2023-02-15T03:51:57.005Z,55.32
2023-02-15T03:54:44.227Z,55.19
2023-02-15T03:57:33.719Z,55.26
2023-02-15T04:00:22.320Z,55.43
2023-02-15T04:03:11.890Z,55.47
2023-02-15T04:05:40.936Z,55.01
2023-02-15T04:08:11.825Z,55.47
2023-02-15T04:10:54.345Z,55.52
2023-02-15T04:13:23.323Z,55.51
2023-02-15T04:16:07.120Z,55.17
2023-02-15T04:18:56.242Z,55.39
2023-02-15T04:21:44.232Z,55.47
2023-02-15T04:24:32.164Z,55.51
2023-02-15T04:27:01.320Z,55.16
2023-02-15T04:29:30.893Z,55.49
2023-02-15T04:32:03.519Z,55.37
2023-02-15T04:34:31.884Z,55.11
2023-02-15T04:37:00.135Z,55.17
2023-02-15T04:39:29.779Z,55.36
2023-02-15T04:41:58.056Z,55.15
2023-02-15T04:44:26.826Z,55.36
2023-02-15T04:46:55.813Z,55.07
2023-02-15T04:49:24.042Z,55.22
2023-02-15T04:51:52.298Z,55.07
2023-02-15T04:54:20.570Z,55.11
2023-02-15T04:56:50.167Z,55.10
2023-02-15T04:59:18.416Z,55.13
2023-02-15T05:01:46.650Z,55.27
2023-02-15T05:04:15.024Z,55.13
2023-02-15T05:06:43.383Z,55.14
2023-02-15T05:09:15.180Z,55.06
2023-02-15T05:11:43.442Z,54.73
2023-02-15T05:14:13.082Z,54.69
2023-02-15T05:16:41.590Z,55.00
2023-02-15T05:19:10.227Z,54.89
2023-02-15T05:21:38.548Z,54.98
2023-02-15T05:24:28.540Z,55.50
2023-02-15T05:27:10.651Z,55.02
2023-02-15T05:29:40.239Z,55.01
2023-02-15T05:32:08.618Z,54.98
2023-02-15T05:34:36.991Z,54.92
2023-02-15T05:37:05.204Z,55.04
2023-02-15T05:39:33.458Z,55.13
2023-02-15T05:42:01.880Z,55.18
2023-02-15T05:44:30.613Z,55.18
2023-02-15T05:47:00.167Z,55.30
2023-02-15T05:49:28.450Z,55.22
2023-02-15T05:51:56.748Z,55.45
2023-02-15T05:54:24.968Z,55.16
2023-02-15T05:56:53.170Z,55.28
2023-02-15T05:59:21.389Z,55.20
2023-02-15T06:01:49.592Z,55.37
2023-02-15T06:04:19.245Z,55.23
2023-02-15T06:06:47.620Z,55.20
2023-02-15T06:09:19.154Z,55.16
2023-02-15T06:11:47.723Z,55.34
2023-02-15T06:14:15.988Z,55.14
2023-02-15T06:16:44.215Z,55.18
2023-02-15T06:19:12.436Z,55.36
2023-02-15T06:21:42.045Z,55.20
2023-02-15T06:24:11.322Z,55.25
2023-02-15T06:26:39.530Z,55.30
2023-02-15T06:29:07.832Z,55.25
2023-02-15T06:31:36.183Z,55.40
2023-02-15T06:34:04.568Z,55.36
2023-02-15T06:36:33.546Z,55.31
2023-02-15T06:39:04.064Z,55.25
2023-02-15T06:41:32.690Z,55.31
2023-02-15T06:44:01.118Z,55.18
2023-02-15T06:46:29.385Z,55.38
2023-02-15T06:48:57.650Z,55.32
2023-02-15T06:51:25.958Z,55.25
2023-02-15T06:53:54.228Z,55.25
2023-02-15T06:56:23.962Z,55.20
2023-02-15T06:58:53.574Z,55.45
2023-02-15T07:01:21.888Z,55.35
2023-02-15T07:03:50.222Z,55.34
2023-02-15T07:06:18.448Z,55.42
2023-02-15T07:08:46.670Z,55.34
2023-02-15T07:11:32.628Z,55.30
2023-02-15T07:14:02.239Z,55.40
2023-02-15T07:16:30.955Z,55.46
2023-02-15T07:18:59.258Z,55.60
2023-02-15T07:21:27.578Z,55.29
2023-02-15T07:23:59.025Z,55.54
2023-02-15T07:26:27.506Z,55.44
2023-02-15T07:28:55.785Z,55.39
2023-02-15T07:31:25.450Z,55.50
2023-02-15T07:33:53.737Z,55.39
2023-02-15T07:36:21.972Z,55.50
2023-02-15T07:38:50.263Z,55.35
2023-02-15T07:41:18.597Z,55.59
2023-02-15T07:43:47.738Z,55.43
2023-02-15T07:46:18.906Z,55.55
2023-02-15T07:48:48.930Z,55.46
2023-02-15T07:51:17.242Z,55.30
2023-02-15T07:53:45.573Z,55.15
2023-02-15T07:56:15.731Z,55.22
2023-02-15T07:58:52.689Z,55.17
2023-02-15T08:05:27.935Z,55.08
2023-02-15T08:07:56.172Z,55.26
2023-02-15T08:10:44.495Z,55.52
2023-02-15T08:13:12.736Z,55.31
2023-02-15T08:15:41.053Z,55.63
2023-02-15T08:18:09.278Z,55.54
2023-02-15T08:20:38.940Z,55.38
2023-02-15T08:23:07.148Z,55.58
2023-02-15T08:25:35.431Z,55.42
2023-02-15T08:28:03.660Z,55.46
2023-02-15T08:30:33.363Z,55.44
2023-02-15T08:33:03.356Z,55.31
2023-02-15T08:35:31.592Z,55.52
2023-02-15T08:38:01.204Z,55.48
2023-02-15T08:40:29.458Z,55.30
2023-02-15T08:42:57.750Z,55.24
2023-02-15T08:45:26.472Z,55.53
2023-02-15T08:47:55.453Z,55.51
2023-02-15T08:50:23.939Z,55.30
2023-02-15T08:52:52.182Z,55.52
2023-02-15T08:55:21.803Z,55.45
2023-02-15T08:57:50.070Z,55.43
2023-02-15T09:00:20.007Z,55.62
2023-02-15T09:02:48.256Z,55.50
2023-02-15T09:05:16.660Z,55.27
2023-02-15T09:07:44.897Z,55.52
2023-02-15T09:10:13.147Z,55.34
2023-02-15T09:12:42.727Z,55.63
2023-02-15T09:15:11.915Z,55.44
2023-02-15T09:17:40.147Z,55.26
2023-02-15T09:20:10.062Z,55.24
2023-02-15T09:22:38.332Z,55.29
2023-02-15T09:25:07.386Z,55.44
2023-02-15T09:27:35.638Z,55.44
2023-02-15T09:30:05.919Z,55.53
2023-02-15T09:32:34.250Z,55.42
2023-02-15T09:35:02.482Z,55.25
2023-02-15T09:37:32.754Z,55.18
2023-02-15T09:40:01.254Z,55.43
2023-02-15T09:43:00.613Z,55.35
2023-02-15T09:45:44.543Z,55.49
2023-02-15T09:48:41.128Z,55.35
2023-02-15T09:51:29.997Z,55.75
2023-02-15T09:54:18.127Z,55.52
2023-02-15T09:56:54.349Z,55.80
2023-02-15T09:59:32.460Z,55.51
2023-02-15T10:02:21.025Z,55.54
2023-02-15T10:05:02.768Z,55.66
2023-02-15T10:07:56.178Z,55.65
2023-02-15T10:10:34.462Z,55.53
2023-02-15T10:13:24.241Z,55.62
2023-02-15T10:16:08.976Z,55.70
2023-02-15T10:19:04.889Z,55.59
2023-02-15T10:21:51.245Z,55.68
2023-02-15T10:24:56.676Z,55.44
2023-02-15T10:27:24.882Z,55.47
2023-02-15T10:30:06.866Z,55.76
2023-02-15T10:32:49.222Z,55.29
2023-02-15T10:35:28.878Z,55.54
2023-02-15T10:38:11.230Z,55.12
2023-02-15T10:40:51.503Z,55.38
2023-02-15T10:43:48.557Z,55.45
2023-02-15T10:46:37.829Z,55.29
2023-02-15T10:49:37.222Z,55.38
2023-02-15T10:52:28.714Z,55.47
2023-02-15T10:55:11.025Z,55.60
2023-02-15T10:57:53.554Z,55.46
2023-02-15T11:00:30.088Z,55.18
2023-02-15T11:03:19.527Z,55.18
2023-02-15T11:05:59.594Z,55.44
2023-02-15T11:08:33.428Z,55.38
2023-02-15T11:11:07.836Z,55.31
2023-02-15T11:13:42.165Z,55.58
2023-02-15T11:16:18.640Z,55.52
2023-02-15T11:18:53.701Z,55.26
2023-02-15T11:21:25.310Z,55.61
2023-02-15T11:23:55.872Z,55.55
2023-02-15T11:26:31.198Z,55.34
2023-02-15T11:29:04.110Z,55.60
2023-02-15T11:31:44.948Z,55.47
2023-02-15T11:34:21.027Z,55.55
2023-02-15T11:36:52.395Z,55.39
2023-02-15T11:39:24.248Z,55.38
2023-02-15T11:41:55.919Z,55.69
2023-02-15T11:44:30.354Z,55.60
2023-02-15T11:46:59.051Z,55.49
2023-02-15T11:49:32.701Z,55.31
2023-02-15T11:52:05.242Z,55.43
2023-02-15T11:54:38.583Z,55.30
2023-02-15T11:57:16.520Z,55.65
2023-02-15T11:59:51.928Z,55.35
2023-02-15T12:02:23.110Z,55.28
2023-02-15T12:04:55.232Z,55.19
2023-02-15T12:07:29.624Z,55.41
2023-02-15T12:10:08.051Z,55.13
2023-02-15T12:12:37.794Z,55.32
2023-02-15T12:15:08.556Z,55.21
2023-02-15T12:17:42.817Z,55.21
2023-02-15T12:20:30.694Z,55.37
2023-02-15T12:23:04.182Z,55.53
2023-02-15T12:25:42.196Z,55.09
2023-02-15T12:28:26.951Z,55.46
2023-02-15T12:30:57.400Z,55.18
2023-02-15T12:33:32.333Z,55.10
2023-02-15T12:36:04.754Z,55.37
2023-02-15T12:38:35.198Z,55.08
2023-02-15T12:41:07.761Z,55.11
2023-02-15T12:43:39.319Z,55.24
2023-02-15T12:46:23.899Z,55.03
2023-02-15T12:49:10.053Z,55.24
2023-02-15T12:51:47.265Z,54.97
2023-02-15T12:54:30.996Z,54.70
2023-02-15T12:57:01.233Z,54.79
2023-02-15T12:59:29.508Z,54.77
2023-02-15T13:01:58.012Z,54.99
2023-02-15T13:04:29.413Z,54.57
2023-02-15T13:07:03.042Z,54.66
2023-02-15T13:09:40.763Z,54.80
2023-02-15T13:12:22.425Z,54.60
2023-02-15T13:14:53.749Z,54.87
2023-02-15T13:17:30.314Z,54.46
2023-02-15T13:20:04.998Z,54.60
2023-02-15T13:22:43.084Z,54.49
2023-02-15T13:25:17.017Z,54.59
2023-02-15T13:27:48.567Z,54.83
2023-02-15T13:30:30.187Z,54.68
2023-02-15T13:33:04.384Z,54.87
2023-02-15T13:35:43.245Z,54.65
2023-02-15T13:38:47.295Z,54.73
2023-02-15T13:41:19.893Z,54.59
2023-02-15T13:44:01.871Z,54.70
2023-02-15T13:46:47.799Z,54.74
2023-02-15T13:49:41.120Z,54.76
2023-02-15T13:52:21.400Z,54.59
2023-02-15T13:55:26.679Z,54.66
2023-02-15T13:58:33.917Z,54.74
2023-02-15T14:01:13.642Z,54.52
2023-02-15T14:04:16.315Z,54.49
2023-02-15T14:07:08.575Z,54.47
2023-02-15T14:09:49.604Z,54.44
2023-02-15T14:12:46.877Z,54.22
2023-02-15T14:15:28.632Z,54.68
2023-02-15T14:18:13.497Z,54.36
2023-02-15T14:20:58.840Z,54.72
2023-02-15T14:23:41.757Z,54.33
2023-02-15T14:26:19.207Z,54.31
2023-02-15T14:28:55.092Z,54.43
2023-02-15T14:31:31.955Z,54.58
2023-02-15T14:34:01.659Z,54.42
2023-02-15T14:36:32.639Z,54.48
2023-02-15T14:39:31.301Z,54.73
2023-02-15T14:42:06.881Z,54.47
2023-02-15T14:44:41.027Z,54.54
2023-02-15T14:47:18.616Z,54.75
2023-02-15T14:49:48.230Z,54.70
2023-02-15T14:52:16.441Z,54.54
2023-02-15T14:55:01.901Z,54.63
2023-02-15T14:57:36.248Z,54.39
2023-02-15T15:00:40.037Z,54.30
2023-02-15T15:03:23.062Z,54.35
2023-02-15T15:06:06.030Z,54.49
2023-02-15T15:08:38.781Z,54.33
2023-02-15T15:11:44.126Z,54.20
2023-02-15T15:14:40.964Z,54.49
2023-02-15T15:17:13.541Z,54.33
2023-02-15T15:20:14.427Z,54.06
2023-02-15T15:22:45.722Z,54.11
2023-02-15T15:25:42.852Z,54.09
2023-02-15T15:28:11.144Z,54.31
2023-02-15T15:31:07.201Z,54.02
2023-02-15T15:34:26.966Z,53.85
2023-02-15T15:37:54.415Z,53.86
2023-02-15T15:41:05.694Z,54.05
2023-02-15T15:44:36.287Z,53.94
2023-02-15T15:47:36.026Z,54.07
2023-02-15T15:50:14.325Z,53.81
2023-02-15T15:52:47.108Z,53.96
2023-02-15T15:55:20.992Z,54.24
2023-02-15T15:57:54.439Z,54.15
2023-02-15T16:00:37.600Z,54.08
2023-02-15T16:03:06.378Z,53.99
2023-02-15T16:05:39.898Z,53.81
2023-02-15T16:08:08.566Z,53.95
2023-02-15T16:10:38.921Z,53.78
2023-02-15T16:13:09.308Z,53.84
2023-02-15T16:15:46.435Z,53.96
2023-02-15T16:18:18.865Z,53.82
2023-02-15T16:20:54.207Z,54.20
2023-02-15T16:24:06.200Z,54.29
2023-02-15T16:27:01.742Z,53.75
2023-02-15T16:29:34.857Z,53.70
2023-02-15T16:32:05.950Z,53.73
2023-02-15T16:34:34.926Z,54.00
2023-02-15T16:37:17.924Z,53.78
2023-02-15T16:39:49.027Z,54.11
2023-02-15T16:42:19.245Z,54.44
2023-02-15T16:44:54.271Z,54.23
2023-02-15T16:47:27.711Z,54.15
2023-02-15T16:49:59.426Z,54.03
2023-02-15T16:52:30.161Z,54.55
2023-02-15T16:55:01.166Z,54.43
2023-02-15T16:57:34.053Z,54.22
2023-02-15T17:00:08.382Z,54.58
2023-02-15T17:02:54.995Z,54.21
2023-02-15T17:05:25.723Z,54.28
2023-02-15T17:08:15.249Z,54.24
2023-02-15T17:10:47.047Z,54.09
2023-02-15T17:13:16.219Z,54.48
2023-02-15T17:16:28.776Z,54.18
2023-02-15T17:18:59.396Z,54.44
2023-02-15T17:21:33.838Z,54.18
2023-02-15T17:24:05.130Z,54.49
2023-02-15T17:26:36.447Z,54.42
2023-02-15T17:29:15.061Z,54.15
2023-02-15T17:31:51.751Z,54.30
2023-02-15T17:34:47.240Z,54.44
2023-02-15T17:37:26.381Z,54.34
2023-02-15T17:39:55.220Z,54.38
2023-02-15T17:42:23.530Z,54.23
2023-02-15T17:44:51.840Z,54.37
2023-02-15T17:47:25.585Z,54.30
2023-02-15T17:49:55.841Z,54.10
2023-02-15T17:52:25.116Z,54.10
2023-02-15T17:55:12.973Z,53.98
2023-02-15T17:57:41.256Z,54.32
2023-02-15T18:00:33.296Z,54.01
2023-02-15T18:03:20.507Z,54.11
2023-02-15T18:06:06.100Z,54.16
2023-02-15T18:08:51.729Z,54.36
2023-02-15T18:11:38.410Z,54.05
2023-02-15T18:14:08.317Z,54.34
2023-02-15T18:16:40.868Z,54.53
2023-02-15T18:19:18.015Z,54.28
2023-02-15T18:21:47.227Z,54.49
2023-02-15T18:24:20.457Z,54.63
2023-02-15T18:26:49.590Z,54.38
2023-02-15T18:29:18.022Z,54.29
2023-02-15T18:31:49.767Z,54.56
2023-02-15T18:34:28.730Z,54.34
2023-02-15T18:36:58.094Z,54.32
2023-02-15T18:39:32.460Z,54.38
2023-02-15T18:42:00.784Z,54.33
2023-02-15T18:44:29.126Z,54.36
2023-02-15T18:46:57.410Z,54.32
2023-02-15T18:49:27.048Z,54.69
2023-02-15T18:51:55.363Z,54.74
2023-02-15T18:54:26.055Z,54.75
2023-02-15T18:56:58.471Z,54.51
2023-02-15T18:59:30.420Z,54.70
2023-02-15T19:02:00.460Z,54.49
2023-02-15T19:04:30.114Z,54.76
2023-02-15T19:06:58.396Z,54.54
2023-02-15T19:09:27.816Z,54.55
2023-02-15T19:11:57.595Z,54.49
2023-02-15T19:14:29.824Z,54.73
2023-02-15T19:17:00.542Z,54.49
2023-02-15T19:19:30.205Z,54.46
2023-02-15T19:21:58.564Z,54.49
2023-02-15T19:24:38.585Z,54.76
2023-02-15T19:27:08.980Z,54.66
2023-02-15T19:29:38.209Z,55.02
2023-02-15T19:32:06.827Z,54.65
2023-02-15T19:34:36.476Z,54.88
2023-02-15T19:37:06.905Z,54.66
2023-02-15T19:39:40.335Z,54.59
2023-02-15T19:42:15.516Z,54.70
2023-02-15T19:44:43.788Z,54.74
2023-02-15T19:47:14.829Z,54.79
2023-02-15T19:49:44.481Z,54.58
2023-02-15T19:52:19.504Z,54.71
2023-02-15T19:54:49.276Z,54.53
2023-02-15T19:57:17.893Z,54.67
2023-02-15T19:59:46.229Z,54.54
2023-02-15T20:02:15.659Z,54.55
2023-02-15T20:04:45.440Z,54.70
2023-02-15T20:07:23.707Z,54.92
2023-02-15T20:09:52.105Z,54.84
2023-02-15T20:12:24.203Z,54.88
2023-02-15T20:14:52.515Z,54.74
2023-02-15T20:17:21.003Z,54.79
2023-02-15T20:19:51.021Z,55.00
2023-02-15T20:22:25.122Z,54.68
2023-02-15T20:24:56.243Z,54.94
2023-02-15T20:27:24.893Z,55.04
2023-02-15T20:29:56.718Z,55.05
2023-02-15T20:32:25.723Z,55.15
2023-02-15T20:34:55.421Z,55.00
2023-02-15T20:37:28.651Z,54.99
2023-02-15T20:39:57.293Z,54.74
2023-02-15T20:42:25.568Z,55.04
2023-02-15T20:44:53.811Z,54.78
2023-02-15T20:47:22.077Z,54.87
2023-02-15T20:49:50.615Z,54.82
2023-02-15T20:52:22.090Z,54.95
2023-02-15T20:54:50.541Z,54.74
2023-02-15T20:57:18.795Z,54.91
2023-02-15T20:59:47.007Z,54.59
2023-02-15T21:02:23.530Z,54.85
2023-02-15T21:04:52.044Z,54.90
2023-02-15T21:07:22.869Z,54.82
2023-02-15T21:09:52.395Z,54.95
2023-02-15T21:12:22.079Z,54.57
2023-02-15T21:14:50.494Z,54.81
2023-02-15T21:17:19.104Z,54.58
2023-02-15T21:19:47.400Z,54.82
2023-02-15T21:22:17.122Z,54.54
2023-02-15T21:24:51.668Z,54.68
2023-02-15T21:27:20.358Z,54.81
2023-02-15T21:29:48.635Z,54.66
2023-02-15T21:32:17.034Z,54.87
2023-02-15T21:34:45.424Z,54.76
2023-02-15T21:37:32.057Z,54.64
2023-02-15T21:40:02.752Z,54.62
2023-02-15T21:42:48.492Z,54.81
2023-02-15T21:45:35.494Z,54.80
2023-02-15T21:48:03.977Z,54.64
2023-02-15T21:50:49.798Z,54.63
2023-02-15T21:53:25.355Z,54.92
2023-02-15T21:55:58.640Z,54.56
2023-02-15T21:58:29.358Z,54.70
2023-02-15T22:00:59.623Z,54.56
2023-02-15T22:03:32.245Z,54.69
2023-02-15T22:06:00.592Z,54.52
2023-02-15T22:08:29.282Z,54.69
2023-02-15T22:10:59.183Z,54.88
2023-02-15T22:13:30.834Z,54.74
2023-02-15T22:15:59.999Z,54.77
2023-02-15T22:18:33.351Z,54.62
2023-02-15T22:21:03.614Z,54.89
2023-02-15T22:23:32.474Z,54.75
2023-02-15T22:26:06.486Z,54.81
2023-02-15T22:28:38.298Z,54.67
2023-02-15T22:31:13.283Z,54.71
2023-02-15T22:33:41.732Z,54.88
2023-02-15T22:36:24.820Z,54.99
2023-02-15T22:38:53.740Z,54.85
2023-02-15T22:41:24.739Z,54.87
2023-02-15T22:43:53.110Z,55.03
2023-02-15T22:46:25.461Z,54.93
2023-02-15T22:48:54.437Z,55.01
2023-02-15T22:51:25.361Z,54.88
2023-02-15T22:53:54.054Z,54.95
2023-02-15T22:56:29.563Z,54.94
2023-02-15T22:59:05.508Z,55.01
2023-02-15T23:01:37.182Z,54.98
2023-02-15T23:04:05.881Z,54.94
2023-02-15T23:06:35.370Z,54.63
2023-02-15T23:09:03.665Z,54.85
2023-02-15T23:11:33.325Z,54.62
2023-02-15T23:14:03.040Z,54.67
2023-02-15T23:16:31.901Z,54.99
2023-02-15T23:19:00.205Z,54.74
2023-02-15T23:21:32.003Z,55.02
2023-02-15T23:24:18.992Z,54.89
2023-02-15T23:26:50.556Z,54.82
2023-02-15T23:29:22.337Z,54.81
2023-02-15T23:31:53.427Z,54.81
2023-02-15T23:34:28.628Z,54.83
2023-02-15T23:36:57.874Z,55.14
2023-02-15T23:39:45.919Z,55.23
2023-02-15T23:42:19.905Z,54.84
2023-02-15T23:44:49.658Z,55.20
2023-02-15T23:47:42.640Z,54.93
2023-02-15T23:50:19.074Z,54.96
2023-02-15T23:52:47.407Z,55.01
2023-02-15T23:55:17.005Z,55.15
2023-02-15T23:57:47.522Z,55.07
